Terminal Aerodrome Forecast
Issued by NWS

Home | Current Version | Previous Version | Text Only | Print | Product List | Glossary On
Versions: 1 2 3 4 5 6 7 8 9 10 11 12
000
FTUS46 KSTO 281100
TAFRDD
TAF
KRDD 281139Z 2812/2912 VRB05KT P6SM SKC
     FM282200 16008KT P6SM SCT250
     FM290500 VRB05KT P6SM SKC=

USA.gov is the U.S. government's official web portal to all federal, state and local government web resources and services.